Time;durP1;ratioP1;P1;durP2;ratioP2;P2;SDS_P1;SDS_P2;PMS_P1;PMS_P2;Temp;Humidity;BMP_temperature;BMP_pressure;BME280_temperature;BME280_humidity;BME280_pressure;Samples;Min_cycle;Max_cycle;Signal;HPM_P1;HPM_P2
2021/12/05 00:17:33;;;;;;;24.95;10.50;;;3.70;99.90;;;;;;5014380;23;20025;-72
2021/12/05 00:21:44;;;;;;;25.65;10.75;;;3.60;99.90;;;;;;5013685;23;20018;-74
2021/12/05 00:23:53;;;;;;;24.20;9.60;;;3.50;99.90;;;;;;5012882;23;20014;-73
2021/12/05 00:25:55;;;;;;;28.52;10.27;;;3.60;99.90;;;;;;5011774;23;20535;-73
2021/12/05 00:32:57;;;;;;;24.08;9.43;;;3.60;99.90;;;;;;5013339;23;20348;-73
2021/12/05 00:35:34;;;;;;;26.75;9.38;;;3.60;99.90;;;;;;5011974;23;20328;-73
2021/12/05 00:40:12;;;;;;;35.00;12.82;;;3.60;99.90;;;;;;5015105;23;20023;-74
2021/12/05 00:46:55;;;;;;;24.75;8.52;;;3.80;99.90;;;;;;5014930;23;20589;-74
2021/12/05 00:55:53;;;;;;;22.20;8.27;;;3.90;99.90;;;;;;5016147;23;20452;-73
2021/12/05 01:00:05;;;;;;;17.00;7.85;;;4.20;99.90;;;;;;5014274;23;20014;-73
2021/12/05 01:07:14;;;;;;;18.90;7.82;;;4.00;99.90;;;;;;5016123;23;20046;-73
2021/12/05 01:13:54;;;;;;;21.85;8.48;;;4.00;99.90;;;;;;5017188;23;20113;-72
2021/12/05 01:15:59;;;;;;;18.90;7.07;;;4.00;99.90;;;;;;5016705;23;20348;-72
2021/12/05 01:18:04;;;;;;;19.48;7.93;;;4.00;99.90;;;;;;5015546;23;20086;-72
2021/12/05 01:20:12;;;;;;;21.02;6.90;;;4.00;99.90;;;;;;5015769;23;20021;-72
2021/12/05 01:22:17;;;;;;;20.35;7.43;;;3.90;99.90;;;;;;5016148;23;20042;-75
2021/12/05 01:24:31;;;;;;;18.67;8.10;;;3.80;99.90;;;;;;5015711;23;20043;-73
2021/12/05 01:31:15;;;;;;;17.10;7.30;;;3.80;99.90;;;;;;5010925;23;20067;-73
2021/12/05 01:33:40;;;;;;;19.63;7.00;;;3.80;99.90;;;;;;5014350;23;20062;-73
2021/12/05 01:36:04;;;;;;;18.83;6.25;;;3.90;99.90;;;;;;5015773;23;20097;-73
2021/12/05 01:38:28;;;;;;;14.30;7.70;;;3.90;99.90;;;;;;5013433;23;20010;-73
2021/12/05 01:59:11;;;;;;;23.48;7.43;;;3.50;99.90;;;;;;5014034;23;20113;-73
2021/12/05 02:15:15;;;;;;;26.33;6.97;;;3.40;99.90;;;;;;5014303;23;20026;-72
2021/12/05 02:38:07;;;;;;;22.58;7.32;;;2.90;99.90;;;;;;5015135;23;20019;-73
2021/12/05 02:40:24;;;;;;;14.00;6.05;;;2.90;99.90;;;;;;5013166;23;20598;-73
2021/12/05 02:42:32;;;;;;;21.45;6.25;;;2.90;99.90;;;;;;5015094;23;20070;-73
2021/12/05 02:44:33;;;;;;;19.83;7.93;;;2.80;99.90;;;;;;5014826;23;20069;-73
2021/12/05 02:46:34;;;;;;;21.90;7.03;;;2.80;99.90;;;;;;5015796;23;20015;-72
2021/12/05 02:48:37;;;;;;;14.93;5.85;;;2.80;99.90;;;;;;5014858;23;20748;-73
2021/12/05 02:50:39;;;;;;;19.70;5.32;;;2.90;99.90;;;;;;5015494;23;20521;-74
2021/12/05 02:52:41;;;;;;;21.33;5.60;;;3.10;99.90;;;;;;5015427;23;20066;-73
2021/12/05 02:54:48;;;;;;;18.83;5.95;;;3.20;99.90;;;;;;5015214;23;20011;-73
2021/12/05 02:56:51;;;;;;;23.63;6.10;;;3.20;99.90;;;;;;5015380;23;20025;-72
2021/12/05 02:58:55;;;;;;;21.60;6.72;;;3.20;99.90;;;;;;5012800;23;20028;-72
2021/12/05 03:02:59;;;;;;;16.65;5.70;;;3.20;99.90;;;;;;5014966;23;20011;-73
2021/12/05 03:05:01;;;;;;;20.30;5.20;;;3.30;99.90;;;;;;5014849;23;20046;-73
2021/12/05 03:07:06;;;;;;;24.90;5.90;;;3.30;99.90;;;;;;5015025;23;20542;-73
2021/12/05 03:09:12;;;;;;;20.50;5.53;;;3.30;99.90;;;;;;5014937;23;20015;-72
2021/12/05 03:11:15;;;;;;;16.13;5.90;;;3.30;99.90;;;;;;5013623;23;20511;-72
2021/12/05 03:13:16;;;;;;;17.17;5.70;;;3.30;99.90;;;;;;5015012;23;20150;-73
2021/12/05 03:15:18;;;;;;;21.67;4.68;;;3.40;99.90;;;;;;5014740;23;20021;-73
2021/12/05 03:17:19;;;;;;;14.90;4.85;;;3.40;99.90;;;;;;5015100;23;20041;-73
2021/12/05 03:19:20;;;;;;;10.45;4.47;;;3.40;99.90;;;;;;5012568;23;20420;-72
2021/12/05 03:21:22;;;;;;;16.85;5.00;;;3.40;99.90;;;;;;5015366;23;20123;-72
2021/12/05 03:23:22;;;;;;;17.05;7.28;;;3.40;99.90;;;;;;5014434;23;20011;-74
2021/12/05 03:25:24;;;;;;;22.77;6.80;;;3.40;99.90;;;;;;5014997;23;20045;-73
2021/12/05 03:27:25;;;;;;;21.08;5.95;;;3.40;99.90;;;;;;5013917;23;20018;-74
2021/12/05 03:29:26;;;;;;;11.98;5.72;;;3.30;99.90;;;;;;5013506;23;20026;-72
2021/12/05 03:31:30;;;;;;;11.77;5.80;;;3.30;99.90;;;;;;5008192;23;20077;-72
2021/12/05 03:33:31;;;;;;;18.67;7.40;;;3.30;99.90;;;;;;5010011;23;20066;-72
2021/12/05 03:35:32;;;;;;;23.80;7.07;;;3.30;99.90;;;;;;5014291;23;20030;-71
2021/12/05 03:37:33;;;;;;;17.27;5.97;;;3.30;99.90;;;;;;5013996;23;20007;-73
2021/12/05 03:39:35;;;;;;;23.10;6.68;;;3.30;99.90;;;;;;5012379;23;20038;-72
2021/12/05 03:41:37;;;;;;;17.05;6.28;;;3.30;99.90;;;;;;5018071;23;20093;-72
2021/12/05 03:43:39;;;;;;;15.88;5.57;;;3.40;99.90;;;;;;5018643;23;20023;-72
2021/12/05 03:45:44;;;;;;;19.00;7.35;;;3.40;99.90;;;;;;5014337;23;20451;-72
2021/12/05 03:47:45;;;;;;;20.52;6.70;;;3.40;99.90;;;;;;5014597;23;20023;-73
2021/12/05 03:49:46;;;;;;;25.95;7.00;;;3.40;99.90;;;;;;5014434;23;20011;-73
2021/12/05 03:51:51;;;;;;;21.52;6.05;;;3.30;99.90;;;;;;5014698;23;20018;-72
2021/12/05 03:53:53;;;;;;;13.40;5.20;;;3.40;99.90;;;;;;5012693;23;20015;-74
2021/12/05 03:55:56;;;;;;;22.48;6.28;;;3.40;99.90;;;;;;5012336;23;20022;-72
2021/12/05 03:57:57;;;;;;;16.58;6.38;;;3.50;99.90;;;;;;5014308;23;20015;-73
2021/12/05 03:59:58;;;;;;;11.63;5.40;;;3.50;99.90;;;;;;5014980;23;20018;-72
2021/12/05 04:02:00;;;;;;;20.73;6.57;;;3.40;99.90;;;;;;5014177;23;20340;-72
2021/12/05 04:04:02;;;;;;;14.85;6.07;;;3.40;99.90;;;;;;5013838;23;20058;-73
2021/12/05 04:06:05;;;;;;;18.27;5.20;;;3.40;99.90;;;;;;5012864;23;20043;-72
2021/12/05 04:08:09;;;;;;;16.25;6.78;;;3.40;99.90;;;;;;5012853;23;20018;-72
2021/12/05 04:10:11;;;;;;;22.00;7.05;;;3.40;99.90;;;;;;5014202;23;20355;-72
2021/12/05 04:12:15;;;;;;;18.15;6.40;;;3.40;99.90;;;;;;5011916;23;20459;-72
2021/12/05 04:14:17;;;;;;;15.85;6.22;;;3.40;99.90;;;;;;5012404;23;20019;-72
2021/12/05 04:16:18;;;;;;;20.08;6.97;;;3.50;99.90;;;;;;5014541;23;20503;-74
2021/12/05 04:18:19;;;;;;;19.73;6.68;;;3.50;99.90;;;;;;5014014;23;20011;-72
2021/12/05 04:20:20;;;;;;;15.15;5.93;;;3.50;99.90;;;;;;5012377;23;20042;-72
2021/12/05 04:22:21;;;;;;;23.40;7.45;;;3.50;99.90;;;;;;5013624;23;20021;-73
2021/12/05 04:24:22;;;;;;;19.40;6.75;;;3.50;99.90;;;;;;5013774;23;20007;-74
2021/12/05 04:26:23;;;;;;;17.15;6.88;;;3.50;99.90;;;;;;5014763;23;20007;-73
2021/12/05 04:28:25;;;;;;;23.80;7.40;;;3.50;99.90;;;;;;5014789;23;20022;-74
2021/12/05 04:30:25;;;;;;;19.13;6.22;;;3.50;99.90;;;;;;5014431;23;20027;-73
2021/12/05 04:32:26;;;;;;;13.18;6.15;;;3.50;99.90;;;;;;5012601;23;20015;-72
2021/12/05 04:34:27;;;;;;;13.98;6.07;;;3.50;99.90;;;;;;5014889;23;20022;-73
2021/12/05 04:36:27;;;;;;;19.40;6.78;;;3.60;99.90;;;;;;5014213;23;20086;-73
2021/12/05 04:38:28;;;;;;;20.50;7.03;;;3.70;99.90;;;;;;5013129;23;20023;-73
2021/12/05 04:40:29;;;;;;;16.13;6.85;;;3.70;99.90;;;;;;5014245;23;20019;-73
2021/12/05 04:42:30;;;;;;;25.33;7.97;;;3.70;99.90;;;;;;5015919;23;20019;-73
2021/12/05 04:44:31;;;;;;;20.67;6.97;;;3.60;99.90;;;;;;5015853;23;20018;-73
2021/12/05 04:46:32;;;;;;;15.23;7.13;;;3.70;99.90;;;;;;5015980;23;20031;-73
2021/12/05 04:48:32;;;;;;;18.08;6.35;;;3.70;99.90;;;;;;5016880;23;20288;-72
2021/12/05 04:50:35;;;;;;;19.10;6.72;;;3.70;99.90;;;;;;5014017;23;20026;-72
2021/12/05 04:52:36;;;;;;;18.27;6.38;;;3.70;99.90;;;;;;5016399;23;20025;-72
2021/12/05 04:54:37;;;;;;;16.90;6.90;;;3.70;99.90;;;;;;5013621;23;20026;-73
2021/12/05 04:56:38;;;;;;;12.68;7.00;;;3.70;99.90;;;;;;5014381;23;20027;-73
2021/12/05 04:58:39;;;;;;;16.10;6.72;;;3.70;99.90;;;;;;5014902;23;20448;-72
2021/12/05 05:00:43;;;;;;;19.13;6.63;;;3.70;99.90;;;;;;5015768;23;20018;-71
2021/12/05 05:02:44;;;;;;;23.42;7.88;;;3.70;99.90;;;;;;5016535;23;20022;-71
2021/12/05 05:04:49;;;;;;;12.98;6.15;;;3.80;99.90;;;;;;5015845;23;20019;-72
2021/12/05 05:06:50;;;;;;;16.45;7.80;;;3.80;99.90;;;;;;5016394;23;20026;-73
2021/12/05 05:08:53;;;;;;;16.25;6.75;;;3.80;99.90;;;;;;5014372;23;20019;-71
2021/12/05 05:10:54;;;;;;;21.90;8.13;;;3.80;99.90;;;;;;5015708;23;20025;-72
2021/12/05 05:12:55;;;;;;;14.35;7.35;;;3.90;99.90;;;;;;5016243;23;20015;-72
2021/12/05 05:14:56;;;;;;;19.88;8.43;;;3.90;99.90;;;;;;5015562;23;20766;-72
2021/12/05 05:16:57;;;;;;;14.52;6.72;;;3.90;99.90;;;;;;5016430;23;20023;-72
2021/12/05 05:19:00;;;;;;;11.95;6.93;;;3.80;99.90;;;;;;5014224;23;20026;-72
2021/12/05 05:21:10;;;;;;;18.38;7.47;;;3.90;99.90;;;;;;5016060;23;20023;-72
2021/12/05 05:23:23;;;;;;;20.75;7.72;;;3.90;99.90;;;;;;5015795;23;20392;-73
2021/12/05 05:28:21;;;;;;;18.15;7.50;;;3.90;99.90;;;;;;5015878;23;20379;-71
2021/12/05 05:39:22;;;;;;;19.27;7.88;;;3.90;99.90;;;;;;5011787;23;20347;-72
2021/12/05 05:41:33;;;;;;;16.38;8.10;;;3.90;99.90;;;;;;4992378;23;20366;-74
2021/12/05 05:47:26;;;;;;;14.32;7.07;;;3.90;99.90;;;;;;5015317;23;19917;-71
2021/12/05 05:49:47;;;;;;;20.65;10.48;;;3.90;99.90;;;;;;5015581;23;20070;-71
2021/12/05 05:51:48;;;;;;;18.05;6.78;;;3.90;99.90;;;;;;5015962;23;20015;-72
2021/12/05 05:53:49;;;;;;;17.55;7.15;;;4.00;99.90;;;;;;5015487;23;20019;-72
2021/12/05 05:55:49;;;;;;;15.43;7.43;;;4.00;99.90;;;;;;5015621;23;20068;-71
2021/12/05 06:00:11;;;;;;;14.73;7.05;;;4.00;99.90;;;;;;5015275;23;20018;-73
2021/12/05 06:04:16;;;;;;;;;;;4.00;99.90;;;;;;5016274;23;20010;-74
2021/12/05 06:06:17;;;;;;;15.85;7.10;;;4.00;99.90;;;;;;5015743;23;20326;-73
2021/12/05 06:08:21;;;;;;;14.48;7.07;;;4.00;99.90;;;;;;5016018;23;20027;-73
2021/12/05 06:10:26;;;;;;;12.02;7.38;;;4.10;99.90;;;;;;5015293;23;20011;-71
2021/12/05 06:12:27;;;;;;;15.30;8.10;;;4.10;99.90;;;;;;5015571;23;20622;-72
2021/12/05 06:14:29;;;;;;;15.48;8.43;;;4.10;99.90;;;;;;5013278;23;20143;-72
2021/12/05 06:16:30;;;;;;;15.07;7.45;;;4.10;99.90;;;;;;5015160;23;20023;-72
2021/12/05 06:18:31;;;;;;;15.45;8.25;;;4.10;99.90;;;;;;5015694;23;20014;-73
2021/12/05 06:20:32;;;;;;;14.07;7.10;;;4.10;99.90;;;;;;5013642;23;20091;-72
2021/12/05 06:22:32;;;;;;;10.98;6.65;;;4.10;99.90;;;;;;5015630;23;20420;-72
2021/12/05 06:24:33;;;;;;;16.08;7.55;;;4.10;99.90;;;;;;5014870;23;20026;-72
2021/12/05 06:26:35;;;;;;;11.80;7.35;;;4.10;99.90;;;;;;5014277;23;20026;-72
2021/12/05 06:28:40;;;;;;;14.38;8.07;;;4.10;99.90;;;;;;5014997;23;20078;-72
2021/12/05 06:30:51;;;;;;;13.95;8.07;;;4.20;99.90;;;;;;5014989;23;20088;-72
2021/12/05 06:47:58;;;;;;;19.38;7.82;;;4.10;99.90;;;;;;5014610;23;20030;-74
2021/12/05 06:49:59;;;;;;;12.45;7.32;;;4.20;99.90;;;;;;5015097;23;20093;-72
2021/12/05 06:52:00;;;;;;;15.05;7.25;;;4.20;99.90;;;;;;5013413;23;20018;-74
2021/12/05 06:54:01;;;;;;;10.20;7.70;;;4.20;99.90;;;;;;5015285;23;20022;-74
2021/12/05 06:56:04;;;;;;;14.82;7.30;;;4.20;99.90;;;;;;5014488;23;20014;-73
2021/12/05 06:58:04;;;;;;;14.13;7.30;;;4.20;99.90;;;;;;5015347;23;20309;-72
2021/12/05 07:00:11;;;;;;;12.45;8.05;;;4.20;99.90;;;;;;5014662;23;20041;-71
2021/12/05 07:02:15;;;;;;;11.85;7.60;;;4.20;99.90;;;;;;5012540;23;20363;-72
2021/12/05 07:04:41;;;;;;;10.27;6.45;;;4.30;99.90;;;;;;5013366;23;20015;-73
2021/12/05 07:06:39;;;;;;;10.18;6.65;;;4.30;99.90;;;;;;5014670;23;20029;-72
2021/12/05 07:08:42;;;;;;;12.30;7.85;;;4.30;99.90;;;;;;5014632;23;20050;-72
2021/12/05 07:11:01;;;;;;;11.15;7.35;;;4.40;99.90;;;;;;5014919;23;20757;-75
2021/12/05 07:13:35;;;;;;;13.40;7.38;;;4.30;99.90;;;;;;5014225;23;20011;-72
2021/12/05 07:20:36;;;;;;;8.48;6.10;;;4.30;99.90;;;;;;5011600;23;20021;-72
2021/12/05 07:22:53;;;;;;;11.13;7.93;;;4.30;99.90;;;;;;5019633;23;20054;-74
2021/12/05 07:25:07;;;;;;;11.38;7.13;;;4.30;99.90;;;;;;5015151;23;20011;-72
2021/12/05 07:40:21;;;;;;;9.85;7.18;;;4.30;99.90;;;;;;5012369;23;20026;-73
2021/12/05 07:41:21;;;;;;;6.85;6.15;;;4.20;99.90;;;;;;5013870;23;20027;-73
2021/12/05 07:43:22;;;;;;;13.30;6.55;;;4.20;99.90;;;;;;5014885;23;20482;-72
2021/12/05 07:45:31;;;;;;;11.13;7.00;;;4.20;99.90;;;;;;5014288;23;20098;-73
2021/12/05 07:47:33;;;;;;;8.35;6.47;;;4.20;99.90;;;;;;5013096;23;20018;-73
2021/12/05 07:49:34;;;;;;;8.93;6.15;;;4.20;99.90;;;;;;5015214;23;20014;-72
2021/12/05 07:51:38;;;;;;;8.05;6.05;;;4.20;99.90;;;;;;5014670;23;20017;-73
2021/12/05 07:56:05;;;;;;;10.13;6.47;;;4.20;99.90;;;;;;5014793;23;20340;-74
2021/12/05 07:58:54;;;;;;;8.27;6.18;;;4.20;99.90;;;;;;5014641;23;20015;-71
2021/12/05 08:16:29;;;;;;;7.03;6.20;;;4.00;99.90;;;;;;5013534;23;20094;-71
2021/12/05 08:18:31;;;;;;;10.75;7.45;;;4.00;99.90;;;;;;5014485;23;20500;-71
2021/12/05 08:20:35;;;;;;;7.63;6.78;;;4.00;99.90;;;;;;5014618;23;20657;-71
2021/12/05 08:22:35;;;;;;;11.13;7.85;;;4.10;99.90;;;;;;5014522;23;20440;-70
2021/12/05 08:24:40;;;;;;;10.88;7.93;;;4.20;99.90;;;;;;5014557;23;20054;-71
2021/12/05 08:26:42;;;;;;;9.77;7.95;;;4.10;99.90;;;;;;5011905;23;20019;-73
2021/12/05 08:29:00;;;;;;;13.25;8.07;;;4.20;99.90;;;;;;5012135;23;20018;-71
2021/12/05 08:31:25;;;;;;;11.68;7.10;;;4.10;99.90;;;;;;5008870;23;20019;-72
2021/12/05 08:38:29;;;;;;;9.60;8.23;;;4.00;99.90;;;;;;5014009;23;20105;-71
2021/12/05 08:40:33;;;;;;;9.50;6.88;;;4.10;99.90;;;;;;5011913;23;20380;-71
2021/12/05 08:45:02;;;;;;;12.13;7.78;;;4.10;99.90;;;;;;5014807;23;20569;-72
2021/12/05 09:20:37;;;;;;;9.90;7.82;;;4.20;99.90;;;;;;5014403;23;20022;-72
2021/12/05 09:22:47;;;;;;;9.68;8.68;;;4.30;99.90;;;;;;5013263;23;20050;-71
2021/12/05 09:26:58;;;;;;;23.48;9.30;;;4.30;99.90;;;;;;5017255;23;20854;-71
2021/12/05 09:31:28;;;;;;;11.70;8.40;;;4.40;99.90;;;;;;5015360;23;20326;-72
2021/12/05 10:14:47;;;;;;;12.32;8.82;;;5.20;99.90;;;;;;5015706;23;20015;-71
2021/12/05 10:26:28;;;;;;;12.00;9.13;;;5.20;99.90;;;;;;5015616;23;20021;-71
2021/12/05 10:35:59;;;;;;;15.80;10.35;;;5.20;99.90;;;;;;5015574;23;20065;-72
2021/12/05 10:38:04;;;;;;;13.23;9.43;;;5.20;99.90;;;;;;5015416;23;20022;-71
2021/12/05 10:40:09;;;;;;;13.50;11.10;;;5.30;99.90;;;;;;5015349;23;20114;-72
2021/12/05 10:42:38;;;;;;;15.93;12.68;;;5.20;99.90;;;;;;5015005;23;20090;-71
2021/12/05 10:44:44;;;;;;;11.38;9.77;;;5.20;99.90;;;;;;5015310;23;20030;-71
2021/12/05 10:46:49;;;;;;;13.50;11.57;;;5.10;99.90;;;;;;5015025;23;20035;-71
2021/12/05 10:48:54;;;;;;;13.57;11.60;;;5.10;99.90;;;;;;5015321;23;20021;-72
2021/12/05 10:51:00;;;;;;;13.20;11.18;;;5.20;99.90;;;;;;5013568;23;20031;-71
2021/12/05 10:53:33;;;;;;;17.20;10.82;;;5.10;99.90;;;;;;5015115;23;20015;-71
2021/12/05 10:55:34;;;;;;;12.60;9.52;;;5.10;99.90;;;;;;5014943;23;20019;-71
2021/12/05 10:57:40;;;;;;;17.10;10.98;;;5.20;99.90;;;;;;5013322;23;20023;-72
2021/12/05 10:59:42;;;;;;;15.27;12.38;;;5.20;99.90;;;;;;5013066;23;20030;-73
2021/12/05 11:01:46;;;;;;;15.07;10.52;;;5.30;99.90;;;;;;5014961;23;20015;-72
2021/12/05 11:04:09;;;;;;;13.88;11.35;;;5.40;99.90;;;;;;5012915;23;20023;-72
2021/12/05 11:06:31;;;;;;;15.75;11.35;;;5.40;99.90;;;;;;5013691;23;20026;-73
2021/12/05 11:08:35;;;;;;;13.23;11.13;;;5.40;99.90;;;;;;5015167;23;20039;-71
2021/12/05 11:10:43;;;;;;;14.07;11.50;;;5.30;99.90;;;;;;5014627;23;20424;-71
2021/12/05 11:12:44;;;;;;;13.63;10.60;;;5.30;99.90;;;;;;5013049;23;20019;-72
2021/12/05 11:14:57;;;;;;;18.40;12.75;;;5.40;99.90;;;;;;5014580;23;20090;-70
2021/12/05 11:17:15;;;;;;;12.65;11.20;;;5.30;99.90;;;;;;4988646;23;20102;-71
2021/12/05 11:19:36;;;;;;;12.07;10.77;;;5.30;99.90;;;;;;5013391;23;20526;-74
2021/12/05 11:21:46;;;;;;;17.73;12.25;;;5.20;99.90;;;;;;5015065;23;20027;-73
2021/12/05 11:24:22;;;;;;;14.93;11.00;;;5.20;99.90;;;;;;5012796;23;20018;-74
2021/12/05 11:26:23;;;;;;;15.80;12.02;;;5.30;99.90;;;;;;5014427;23;20074;-74
2021/12/05 11:28:25;;;;;;;14.23;12.70;;;5.30;99.90;;;;;;5012903;23;20456;-75
2021/12/05 11:30:36;;;;;;;13.63;11.57;;;5.40;99.90;;;;;;5014400;23;20062;-75
2021/12/05 11:32:46;;;;;;;14.35;11.95;;;5.40;99.90;;;;;;5014054;23;20062;-75
2021/12/05 11:34:48;;;;;;;16.10;12.60;;;5.40;99.90;;;;;;5014323;23;20540;-74
2021/12/05 11:36:56;;;;;;;18.77;16.75;;;5.50;99.90;;;;;;5014933;23;20486;-74
2021/12/05 11:38:57;;;;;;;17.10;15.35;;;5.40;99.90;;;;;;5010578;23;20018;-74
2021/12/05 11:41:14;;;;;;;15.68;13.82;;;5.50;99.90;;;;;;5008110;23;20022;-75
2021/12/05 11:43:20;;;;;;;16.17;13.07;;;5.50;99.90;;;;;;5014044;23;20034;-75
2021/12/05 11:45:21;;;;;;;13.23;10.75;;;5.50;99.90;;;;;;5012562;23;20019;-74
2021/12/05 11:47:23;;;;;;;15.93;11.82;;;5.50;99.90;;;;;;5013489;23;20014;-74
2021/12/05 11:49:25;;;;;;;13.17;10.40;;;5.40;99.90;;;;;;5014436;23;20022;-75
2021/12/05 11:51:27;;;;;;;14.68;11.45;;;5.40;99.90;;;;;;5014785;23;20837;-75
2021/12/05 11:53:46;;;;;;;11.98;10.68;;;5.40;99.90;;;;;;5015338;23;20101;-75
2021/12/05 11:55:47;;;;;;;13.27;11.52;;;5.30;99.90;;;;;;5012652;23;20015;-75
2021/12/05 11:57:48;;;;;;;14.32;11.35;;;5.30;99.90;;;;;;5015372;23;20090;-74
2021/12/05 11:59:52;;;;;;;18.70;15.00;;;5.30;99.90;;;;;;5015217;23;20118;-75
2021/12/05 12:02:02;;;;;;;15.07;13.48;;;5.40;99.90;;;;;;5013964;23;20098;-75
2021/12/05 12:04:04;;;;;;;14.63;13.05;;;5.50;99.90;;;;;;5012315;23;20038;-74
2021/12/05 12:06:06;;;;;;;19.50;12.63;;;5.60;99.90;;;;;;5025205;23;20388;-75
2021/12/05 12:08:10;;;;;;;29.52;24.67;;;5.60;99.90;;;;;;5013376;23;20015;-74
2021/12/05 12:10:25;;;;;;;14.95;13.40;;;5.60;99.90;;;;;;5012855;23;20042;-75
2021/12/05 12:12:26;;;;;;;16.20;11.88;;;5.60;99.90;;;;;;5014012;23;20443;-75
2021/12/05 12:14:28;;;;;;;13.25;11.93;;;5.60;99.90;;;;;;5014342;23;20029;-75
2021/12/05 12:16:33;;;;;;;17.63;13.70;;;5.60;99.90;;;;;;5013969;23;20029;-74
2021/12/05 12:18:38;;;;;;;15.80;14.10;;;5.60;99.90;;;;;;5014591;23;20047;-75
2021/12/05 12:20:41;;;;;;;15.85;12.63;;;5.60;99.90;;;;;;5012979;23;20054;-75
2021/12/05 12:22:41;;;;;;;18.10;16.33;;;5.60;99.90;;;;;;5012731;23;20019;-75
2021/12/05 12:24:42;;;;;;;18.13;16.30;;;5.60;99.90;;;;;;5014628;23;20042;-75
2021/12/05 12:26:44;;;;;;;17.02;15.13;;;5.60;99.90;;;;;;5012619;23;20106;-75
2021/12/05 12:28:45;;;;;;;16.15;12.38;;;5.60;99.90;;;;;;5014880;23;20054;-74
2021/12/05 12:30:58;;;;;;;14.73;12.20;;;5.70;99.90;;;;;;5012331;23;20019;-75
2021/12/05 12:33:10;;;;;;;11.13;9.90;;;5.70;99.90;;;;;;5014262;23;20023;-74
2021/12/05 12:35:18;;;;;;;15.30;10.13;;;5.70;99.90;;;;;;5014503;23;20099;-74
2021/12/05 12:37:19;;;;;;;12.35;10.98;;;5.70;99.90;;;;;;5014155;23;20444;-74
2021/12/05 12:39:20;;;;;;;12.32;10.13;;;5.80;99.90;;;;;;5014467;23;20022;-73
2021/12/05 12:41:24;;;;;;;13.55;11.52;;;5.90;99.90;;;;;;5013270;23;25043;-73
2021/12/05 12:43:45;;;;;;;16.27;12.10;;;6.00;99.90;;;;;;5014001;23;20730;-74
2021/12/05 12:45:46;;;;;;;17.77;15.90;;;6.10;99.90;;;;;;5012231;23;20093;-74
2021/12/05 12:47:58;;;;;;;14.80;13.35;;;6.20;99.90;;;;;;5013789;23;20074;-74
2021/12/05 12:50:18;;;;;;;21.92;12.40;;;6.20;99.90;;;;;;5013220;23;20057;-73
2021/12/05 12:52:20;;;;;;;14.55;12.13;;;6.30;99.90;;;;;;5013601;23;20102;-75
2021/12/05 12:54:35;;;;;;;12.40;10.82;;;6.40;99.90;;;;;;5013894;23;20339;-74
2021/12/05 12:56:39;;;;;;;10.95;9.85;;;6.40;99.90;;;;;;5014103;23;20078;-75
2021/12/05 12:58:46;;;;;;;10.57;9.48;;;6.50;99.90;;;;;;5012455;23;20023;-74
2021/12/05 13:00:48;;;;;;;13.48;9.63;;;6.50;99.90;;;;;;5016126;23;20040;-74
2021/12/05 13:11:48;;;;;;;11.77;10.45;;;6.20;99.90;;;;;;5016440;23;20343;-74
2021/12/05 13:14:04;;;;;;;10.38;9.32;;;6.00;99.90;;;;;;5016047;23;20049;-75
2021/12/05 13:16:18;;;;;;;11.75;10.20;;;6.00;99.90;;;;;;5015251;23;20444;-75
2021/12/05 13:18:25;;;;;;;10.93;9.70;;;5.90;99.90;;;;;;5016014;23;20041;-73
2021/12/05 13:20:47;;;;;;;13.38;11.23;;;5.80;99.90;;;;;;5015741;23;20065;-74
2021/12/05 13:23:12;;;;;;;11.77;10.57;;;5.80;99.90;;;;;;5012849;23;20053;-73
2021/12/05 13:25:13;;;;;;;11.80;10.65;;;5.70;99.90;;;;;;5015559;23;20098;-74
2021/12/05 13:27:29;;;;;;;14.82;11.45;;;5.60;99.90;;;;;;5015577;23;20011;-74
2021/12/05 13:29:46;;;;;;;12.80;11.50;;;5.60;99.90;;;;;;5013641;23;20093;-75
2021/12/05 13:31:50;;;;;;;14.15;10.55;;;5.50;99.90;;;;;;5015659;23;20011;-74
2021/12/05 13:34:19;;;;;;;12.02;10.07;;;5.50;99.90;;;;;;5012645;23;20011;-75
2021/12/05 13:36:32;;;;;;;11.40;10.35;;;5.50;99.90;;;;;;5013946;23;20355;-74
2021/12/05 13:38:39;;;;;;;12.57;11.27;;;5.50;99.90;;;;;;5012365;23;20042;-74
2021/12/05 13:40:41;;;;;;;15.82;10.70;;;5.50;99.90;;;;;;5008169;23;20058;-74
2021/12/05 13:42:49;;;;;;;10.43;9.43;;;5.50;99.90;;;;;;5008618;23;20041;-75
2021/12/05 13:45:17;;;;;;;10.85;9.75;;;5.50;99.90;;;;;;5014604;23;20768;-75
2021/12/05 13:47:18;;;;;;;12.23;10.93;;;5.50;99.90;;;;;;5010320;23;20015;-74
2021/12/05 13:49:38;;;;;;;12.30;11.10;;;5.50;99.90;;;;;;5013552;23;20019;-74
2021/12/05 13:51:39;;;;;;;11.10;9.38;;;5.60;99.90;;;;;;5013637;23;20033;-74
2021/12/05 13:53:50;;;;;;;11.35;10.15;;;5.60;99.90;;;;;;5013648;23;20011;-74
2021/12/05 13:55:53;;;;;;;13.02;10.95;;;5.50;99.90;;;;;;4988735;23;20058;-75
2021/12/05 13:58:26;;;;;;;11.68;10.43;;;5.50;99.90;;;;;;5015189;23;20070;-74
2021/12/05 14:00:42;;;;;;;13.70;11.63;;;5.50;99.90;;;;;;5015421;23;20014;-75
2021/12/05 14:02:54;;;;;;;17.15;12.63;;;5.40;99.90;;;;;;5015127;23;20065;-75
2021/12/05 14:04:54;;;;;;;11.95;10.68;;;5.40;99.90;;;;;;5013596;23;20015;-74
2021/12/05 14:07:01;;;;;;;12.07;10.85;;;5.40;99.90;;;;;;5014131;23;20025;-75
2021/12/05 14:09:21;;;;;;;12.93;11.63;;;5.40;99.90;;;;;;5015014;23;20015;-75
2021/12/05 14:11:22;;;;;;;12.65;11.45;;;5.30;99.90;;;;;;5014779;23;20029;-74
2021/12/05 14:13:23;;;;;;;12.30;10.88;;;5.30;99.90;;;;;;5015819;23;20011;-75
2021/12/05 14:15:24;;;;;;;12.10;10.85;;;5.20;99.90;;;;;;5015134;23;20162;-74
2021/12/05 14:17:37;;;;;;;17.08;12.20;;;5.20;99.90;;;;;;5015287;23;20348;-75
2021/12/05 14:19:41;;;;;;;13.73;12.20;;;5.10;99.90;;;;;;5014989;23;20019;-75
2021/12/05 14:21:49;;;;;;;15.25;12.30;;;5.10;99.90;;;;;;5015508;23;20090;-74
2021/12/05 14:23:52;;;;;;;14.10;12.45;;;5.10;99.90;;;;;;5011474;23;20553;-74
2021/12/05 14:25:53;;;;;;;14.82;12.73;;;5.10;99.90;;;;;;5023344;23;20018;-73
2021/12/05 14:28:00;;;;;;;15.45;13.77;;;5.00;99.90;;;;;;5013937;23;20527;-75
2021/12/05 14:30:03;;;;;;;15.10;13.35;;;5.00;99.90;;;;;;5013446;23;20062;-74
2021/12/05 14:32:18;;;;;;;15.00;13.30;;;5.00;99.90;;;;;;5015279;23;20030;-74
2021/12/05 14:34:20;;;;;;;14.50;12.98;;;5.00;99.90;;;;;;5015882;23;20448;-77
2021/12/05 14:36:32;;;;;;;14.63;13.17;;;5.00;99.90;;;;;;5005639;23;20012;-75
2021/12/05 14:38:32;;;;;;;14.75;13.25;;;5.00;99.90;;;;;;5032061;23;20572;-75
2021/12/05 14:40:36;;;;;;;16.45;12.68;;;5.00;99.90;;;;;;5015031;23;20097;-75
2021/12/05 14:42:39;;;;;;;14.50;13.00;;;5.00;99.90;;;;;;5013612;23;20023;-74
2021/12/05 14:44:40;;;;;;;16.50;12.45;;;5.00;99.90;;;;;;5013497;23;20477;-75
2021/12/05 14:47:00;;;;;;;18.42;13.93;;;5.00;99.90;;;;;;5013888;23;20022;-74
2021/12/05 14:49:02;;;;;;;17.85;14.68;;;4.90;99.90;;;;;;5012121;23;20383;-74
2021/12/05 14:51:04;;;;;;;18.92;15.93;;;4.90;99.90;;;;;;5014997;23;20039;-74
2021/12/05 14:53:07;;;;;;;20.73;16.45;;;4.90;99.90;;;;;;5013387;23;20022;-74
2021/12/05 14:55:11;;;;;;;20.90;17.13;;;4.90;99.90;;;;;;5012747;23;20162;-75
2021/12/05 14:57:25;;;;;;;17.70;14.52;;;4.80;99.90;;;;;;5013053;23;20023;-74
2021/12/05 14:59:26;;;;;;;20.63;14.95;;;4.80;99.90;;;;;;5013838;23;20023;-74
2021/12/05 15:01:28;;;;;;;17.08;14.60;;;4.80;99.90;;;;;;5013019;23;20034;-74
2021/12/05 15:03:30;;;;;;;16.35;14.60;;;4.80;99.90;;;;;;5014736;23;20466;-74
2021/12/05 15:05:33;;;;;;;17.42;14.05;;;4.80;99.90;;;;;;5015789;23;20019;-75
2021/12/05 15:07:35;;;;;;;15.90;13.05;;;4.70;99.90;;;;;;5015017;23;20019;-75
2021/12/05 15:09:39;;;;;;;16.98;13.95;;;4.70;99.90;;;;;;5015510;23;20035;-74
2021/12/05 15:11:47;;;;;;;19.33;16.92;;;4.70;99.90;;;;;;5014855;23;20018;-74
2021/12/05 15:13:47;;;;;;;20.85;16.70;;;4.70;99.90;;;;;;5015085;23;20023;-74
2021/12/05 15:15:49;;;;;;;17.20;14.70;;;4.70;99.90;;;;;;5015189;23;20019;-75
2021/12/05 15:17:51;;;;;;;22.95;16.75;;;4.60;99.90;;;;;;5014524;23;20342;-74
2021/12/05 15:19:56;;;;;;;29.75;15.63;;;4.60;99.90;;;;;;5015613;23;20011;-74
2021/12/05 15:21:57;;;;;;;69.50;42.70;;;4.60;99.90;;;;;;5014329;23;20017;-74
2021/12/05 15:23:57;;;;;;;20.15;17.10;;;4.70;99.90;;;;;;5014889;23;20021;-75
2021/12/05 15:26:01;;;;;;;18.70;16.10;;;4.70;99.90;;;;;;5015263;23;20014;-75
2021/12/05 15:28:04;;;;;;;24.60;19.30;;;4.60;99.90;;;;;;5014594;23;20011;-74
2021/12/05 15:30:19;;;;;;;22.45;18.52;;;4.60;99.90;;;;;;5013410;23;20011;-74
2021/12/05 15:32:25;;;;;;;22.30;19.55;;;4.60;99.90;;;;;;5012623;23;20054;-75
2021/12/05 15:34:29;;;;;;;23.50;18.35;;;4.60;99.90;;;;;;5013910;23;20021;-74
2021/12/05 15:36:34;;;;;;;22.02;18.35;;;4.50;99.90;;;;;;5014458;23;20023;-74
2021/12/05 15:38:35;;;;;;;27.75;21.40;;;4.50;99.90;;;;;;5014562;23;20014;-74
2021/12/05 15:40:39;;;;;;;25.73;19.55;;;4.50;99.90;;;;;;5014926;23;20026;-74
2021/12/05 15:42:39;;;;;;;26.88;21.88;;;4.50;99.90;;;;;;5010955;23;20553;-74
2021/12/05 15:44:41;;;;;;;45.20;31.25;;;4.50;99.90;;;;;;5009427;23;20022;-74